createdAt,value
2023-02-11T00:02:32.364Z,6.88
2023-02-11T00:05:23.681Z,6.47
2023-02-11T00:08:23.775Z,7.32
2023-02-11T00:11:05.976Z,6.40
2023-02-11T00:13:55.757Z,5.82
2023-02-11T00:16:37.682Z,6.35
2023-02-11T00:19:26.670Z,6.15
2023-02-11T00:22:10.380Z,5.97
2023-02-11T00:24:58.765Z,5.70
2023-02-11T00:27:41.226Z,6.20
2023-02-11T00:30:29.836Z,6.07
2023-02-11T00:33:24.704Z,7.45
2023-02-11T00:36:07.830Z,6.25
2023-02-11T00:38:59.721Z,6.00
2023-02-11T00:41:43.008Z,6.47
2023-02-11T00:44:31.741Z,6.47
2023-02-11T00:47:16.594Z,6.13
2023-02-11T00:50:07.748Z,6.20
2023-02-11T00:52:49.660Z,5.40
2023-02-11T00:55:40.164Z,6.40
2023-02-11T00:58:28.687Z,6.43
2023-02-11T01:01:12.638Z,6.63
2023-02-11T01:04:01.737Z,6.47
2023-02-11T01:06:43.923Z,5.72
2023-02-11T01:09:32.696Z,6.10
2023-02-11T01:12:16.878Z,6.30
2023-02-11T01:15:04.674Z,5.22
2023-02-11T01:17:46.875Z,6.40
2023-02-11T01:20:35.778Z,6.10
2023-02-11T01:23:17.965Z,5.38
2023-02-11T01:26:06.791Z,5.57
2023-02-11T01:28:57.762Z,5.78
2023-02-11T01:31:52.758Z,6.30
2023-02-11T01:34:41.182Z,7.22
2023-02-11T01:37:22.914Z,6.22
2023-02-11T01:40:14.767Z,5.50
2023-02-11T01:42:56.997Z,6.40
2023-02-11T01:46:05.729Z,7.20
2023-02-11T01:48:51.912Z,5.75
2023-02-11T01:51:37.700Z,5.85
2023-02-11T01:54:47.719Z,6.03
2023-02-11T01:57:34.056Z,6.38
2023-02-11T02:00:27.696Z,5.80
2023-02-11T02:03:15.968Z,6.68
2023-02-11T02:06:10.780Z,6.43
2023-02-11T02:08:59.964Z,6.32
2023-02-11T02:11:48.751Z,5.53
2023-02-11T02:14:37.709Z,6.47
2023-02-11T02:17:33.270Z,6.28
2023-02-11T02:20:54.716Z,5.53
2023-02-11T02:23:55.610Z,5.85
2023-02-11T02:27:15.776Z,5.50
2023-02-11T02:30:42.699Z,5.57
2023-02-11T02:36:36.333Z,5.97
2023-02-11T02:39:28.683Z,5.40
2023-02-11T02:42:11.296Z,5.38
2023-02-11T02:45:03.786Z,5.78
2023-02-11T02:47:45.636Z,6.00
2023-02-11T02:50:43.780Z,5.55
2023-02-11T02:53:41.397Z,5.50
2023-02-11T02:56:42.023Z,6.20
2023-02-11T02:59:44.735Z,5.78
2023-02-11T03:02:33.967Z,6.05
2023-02-11T03:05:26.729Z,5.43
2023-02-11T03:08:15.959Z,6.05
2023-02-11T03:11:06.783Z,6.50
2023-02-11T03:13:51.009Z,5.90
2023-02-11T03:16:44.714Z,6.30
2023-02-11T03:19:30.022Z,5.88
2023-02-11T03:22:23.807Z,6.28
2023-02-11T03:25:09.899Z,5.63
2023-02-11T03:28:04.806Z,5.72
2023-02-11T03:30:52.961Z,6.68
2023-02-11T03:33:46.743Z,6.00
2023-02-11T03:36:34.293Z,6.40
2023-02-11T03:39:25.749Z,5.90
2023-02-11T03:42:18.742Z,4.88
2023-02-11T03:45:10.487Z,6.50
2023-02-11T03:48:02.730Z,6.07
2023-02-11T03:50:47.285Z,5.88
2023-02-11T03:53:36.736Z,6.28
2023-02-11T03:56:22.793Z,6.25
2023-02-11T03:59:12.755Z,6.00
2023-02-11T04:01:54.998Z,5.85
2023-02-11T04:04:46.821Z,6.10
2023-02-11T04:07:29.258Z,7.00
2023-02-11T04:10:18.727Z,6.85
2023-02-11T04:13:07.751Z,6.38
2023-02-11T04:15:51.192Z,7.38
2023-02-11T04:18:38.751Z,6.95
2023-02-11T04:21:20.981Z,6.47
2023-02-11T04:24:08.779Z,6.55
2023-02-11T04:26:50.999Z,7.47
2023-02-11T04:29:38.765Z,6.55
2023-02-11T04:32:22.963Z,8.45
2023-02-11T04:35:11.766Z,7.22
2023-02-11T04:38:00.781Z,6.85
2023-02-11T04:40:43.122Z,8.50
2023-02-11T04:43:31.817Z,6.90
2023-02-11T04:46:14.734Z,6.72
2023-02-11T04:49:04.773Z,7.22
2023-02-11T04:51:49.268Z,7.65
2023-02-11T04:54:38.827Z,7.55
2023-02-11T04:57:20.761Z,6.60
2023-02-11T05:00:09.837Z,7.93
2023-02-11T05:02:51.706Z,7.78
2023-02-11T05:05:41.818Z,7.82
2023-02-11T05:08:30.756Z,8.50
2023-02-11T05:11:13.063Z,8.05
2023-02-11T05:14:00.818Z,8.30
2023-02-11T05:16:43.063Z,7.85
2023-02-11T05:19:30.753Z,7.78
2023-02-11T05:22:13.942Z,9.18
2023-02-11T05:25:02.764Z,9.13
2023-02-11T05:27:44.986Z,8.73
2023-02-11T05:30:33.847Z,9.02
2023-02-11T05:33:28.761Z,9.35
2023-02-11T05:36:13.623Z,8.50
2023-02-11T05:39:03.770Z,8.52
2023-02-11T05:41:45.740Z,10.30
2023-02-11T05:44:34.758Z,9.43
2023-02-11T05:47:16.754Z,10.48
2023-02-11T05:50:05.833Z,9.52
2023-02-11T05:52:48.033Z,10.30
2023-02-11T05:55:37.797Z,10.68
2023-02-11T05:58:25.802Z,11.38
2023-02-11T06:01:07.987Z,9.98
2023-02-11T06:03:57.968Z,10.52
2023-02-11T06:06:41.180Z,9.48
2023-02-11T06:09:28.835Z,11.60
2023-02-11T06:12:13.056Z,11.52
2023-02-11T06:15:10.611Z,10.05
2023-02-11T06:17:53.012Z,9.75
2023-02-11T06:20:41.782Z,11.30
2023-02-11T06:23:23.972Z,10.65
2023-02-11T06:26:14.776Z,11.32
2023-02-11T06:29:04.789Z,11.43
2023-02-11T06:31:59.868Z,12.15
2023-02-11T06:34:48.801Z,11.27
2023-02-11T06:37:31.123Z,12.80
2023-02-11T06:40:19.887Z,11.70
2023-02-11T06:43:02.039Z,11.75
2023-02-11T06:45:52.058Z,12.75
2023-02-11T06:48:34.029Z,11.88
2023-02-11T06:51:22.775Z,11.23
2023-02-11T06:54:11.824Z,10.93
2023-02-11T06:56:53.851Z,13.25
2023-02-11T06:59:42.868Z,12.43
2023-02-11T07:02:47.834Z,13.05
2023-02-11T07:05:35.875Z,12.73
2023-02-11T07:08:18.110Z,12.68
2023-02-11T07:11:05.797Z,13.95
2023-02-11T07:13:49.061Z,13.05
2023-02-11T07:16:37.921Z,13.52
2023-02-11T07:19:27.780Z,12.75
2023-02-11T07:22:09.657Z,13.50
2023-02-11T07:24:58.882Z,14.10
2023-02-11T07:27:41.369Z,13.38
2023-02-11T07:30:29.847Z,13.40
2023-02-11T07:33:24.823Z,13.80
2023-02-11T07:36:16.849Z,13.48
2023-02-11T07:38:59.002Z,13.68
2023-02-11T07:41:47.884Z,13.85
2023-02-11T07:44:40.219Z,14.70
2023-02-11T07:47:21.801Z,14.50
2023-02-11T07:50:10.808Z,12.55
2023-02-11T07:52:54.263Z,13.43
2023-02-11T07:55:42.866Z,13.38
2023-02-11T07:58:24.828Z,13.18
2023-02-11T08:01:16.910Z,15.93
2023-02-11T08:04:00.727Z,14.77
2023-02-11T08:06:56.537Z,14.57
2023-02-11T08:09:47.887Z,15.60
2023-02-11T08:12:30.022Z,14.63
2023-02-11T08:15:17.815Z,14.95
2023-02-11T08:18:00.007Z,14.90
2023-02-11T08:20:49.183Z,15.00
2023-02-11T08:23:31.070Z,15.05
2023-02-11T08:26:27.090Z,14.93
2023-02-11T08:29:11.068Z,16.88
2023-02-11T08:31:58.965Z,16.50
2023-02-11T08:34:41.360Z,15.75
2023-02-11T08:37:32.074Z,15.65
2023-02-11T08:40:22.840Z,16.40
2023-02-11T08:43:08.066Z,15.27
2023-02-11T08:45:56.901Z,15.40
2023-02-11T08:48:38.854Z,15.82
2023-02-11T08:51:30.916Z,17.17
2023-02-11T08:54:13.142Z,16.27
2023-02-11T08:57:05.910Z,17.50
2023-02-11T08:59:49.125Z,17.27
2023-02-11T09:02:37.980Z,17.42
2023-02-11T09:05:25.924Z,16.83
2023-02-11T09:08:07.994Z,13.88
2023-02-11T09:10:56.922Z,14.90
2023-02-11T09:13:39.397Z,17.17
2023-02-11T09:16:30.880Z,17.20
2023-02-11T09:19:14.037Z,16.85
2023-02-11T09:22:01.798Z,18.70
2023-02-11T09:24:44.002Z,18.65
2023-02-11T09:27:31.905Z,17.73
2023-02-11T09:30:22.977Z,27.85
2023-02-11T09:33:13.084Z,18.35
2023-02-11T09:35:54.809Z,21.70
2023-02-11T09:38:36.809Z,19.83
2023-02-11T09:41:51.827Z,22.65
2023-02-11T09:44:36.062Z,20.58
2023-02-11T09:47:36.923Z,53.88
2023-02-11T09:50:25.252Z,22.70
2023-02-11T09:53:18.957Z,19.25
2023-02-11T09:56:08.813Z,16.08
2023-02-11T09:58:52.032Z,18.20
2023-02-11T10:01:47.951Z,29.92
2023-02-11T10:04:48.100Z,20.27
2023-02-11T10:07:45.843Z,19.15
2023-02-11T10:10:45.171Z,16.98
2023-02-11T10:13:55.898Z,21.95
2023-02-11T10:16:50.153Z,16.38
2023-02-11T10:19:50.846Z,18.70
2023-02-11T10:22:41.342Z,16.58
2023-02-11T10:25:32.886Z,18.13
2023-02-11T10:28:27.902Z,18.23
2023-02-11T10:31:15.072Z,18.42
2023-02-11T10:34:08.843Z,19.33
2023-02-11T10:36:51.045Z,18.48
2023-02-11T10:39:42.867Z,19.80
2023-02-11T10:42:26.197Z,18.05
2023-02-11T10:45:22.896Z,17.77
2023-02-11T10:48:07.380Z,18.35
2023-02-11T10:50:56.901Z,19.42
2023-02-11T10:53:38.989Z,16.63
2023-02-11T10:56:37.934Z,19.23
2023-02-11T10:59:32.975Z,19.60
2023-02-11T11:02:32.066Z,19.92
2023-02-11T11:05:29.053Z,18.75
2023-02-11T11:08:14.076Z,18.52
2023-02-11T11:11:13.890Z,19.35
2023-02-11T11:14:05.126Z,18.50
2023-02-11T11:17:00.874Z,18.77
2023-02-11T11:19:43.104Z,17.90
2023-02-11T11:22:31.888Z,19.30
2023-02-11T11:25:33.114Z,19.48
2023-02-11T11:28:30.927Z,19.65
2023-02-11T11:31:29.036Z,21.08
2023-02-11T11:34:30.144Z,20.63
2023-02-11T11:37:19.971Z,19.42
2023-02-11T11:40:08.663Z,19.75
2023-02-11T11:42:56.855Z,21.48
2023-02-11T11:45:38.977Z,21.52
2023-02-11T11:48:35.884Z,20.10
2023-02-11T11:51:18.441Z,21.58
2023-02-11T11:57:10.862Z,19.17
2023-02-11T11:59:59.961Z,20.10
2023-02-11T12:03:11.960Z,20.73
2023-02-11T12:06:09.902Z,19.60
2023-02-11T12:09:07.977Z,21.98
2023-02-11T12:12:07.448Z,19.42
2023-02-11T12:15:03.977Z,19.08
2023-02-11T12:18:10.128Z,20.40
2023-02-11T12:21:18.884Z,22.10
2023-02-11T12:24:17.694Z,20.75
2023-02-11T12:27:13.888Z,19.55
2023-02-11T12:30:05.765Z,20.50
2023-02-11T12:33:02.874Z,21.85
2023-02-11T12:35:56.086Z,21.65
2023-02-11T12:39:04.010Z,20.90
2023-02-11T12:42:29.912Z,20.30
2023-02-11T12:45:27.524Z,20.63
2023-02-11T12:48:29.014Z,21.92
2023-02-11T12:51:19.765Z,19.38
2023-02-11T12:54:27.973Z,18.75
2023-02-11T12:57:26.165Z,20.88
2023-02-11T13:00:14.887Z,20.73
2023-02-11T13:03:02.450Z,19.30
2023-02-11T13:05:55.906Z,22.42
2023-02-11T13:08:41.746Z,20.30
2023-02-11T13:11:36.914Z,21.58
2023-02-11T13:14:42.007Z,21.23
2023-02-11T13:17:36.457Z,20.02
2023-02-11T13:20:33.978Z,20.55
2023-02-11T13:23:24.689Z,21.02
2023-02-11T13:26:20.037Z,21.23
2023-02-11T13:29:18.946Z,19.45
2023-02-11T13:32:09.080Z,19.98
2023-02-11T13:34:56.966Z,20.70
2023-02-11T13:37:49.978Z,20.95
2023-02-11T13:40:34.978Z,20.20
2023-02-11T13:43:36.894Z,20.17
2023-02-11T13:46:28.066Z,20.45
2023-02-11T13:49:10.161Z,23.88
2023-02-11T13:51:59.942Z,22.38
2023-02-11T13:54:45.181Z,22.17
2023-02-11T13:57:44.970Z,19.23
2023-02-11T14:00:58.586Z,20.40
2023-02-11T14:04:44.065Z,20.50
2023-02-11T14:08:01.914Z,21.42
2023-02-11T14:10:52.692Z,21.50
2023-02-11T14:13:43.083Z,21.90
2023-02-11T14:16:37.284Z,21.23
2023-02-11T14:19:45.986Z,21.40
2023-02-11T14:22:37.934Z,21.95
2023-02-11T14:25:29.242Z,21.38
2023-02-11T14:28:26.046Z,22.02
2023-02-11T14:31:15.137Z,22.33
2023-02-11T14:34:40.919Z,22.20
2023-02-11T14:37:37.194Z,23.33
2023-02-11T14:40:36.982Z,22.45
2023-02-11T14:43:22.216Z,20.58
2023-02-11T14:46:11.071Z,22.88
2023-02-11T14:49:01.935Z,23.00
2023-02-11T14:51:45.563Z,23.00
2023-02-11T14:54:36.953Z,22.42
2023-02-11T14:57:35.990Z,22.40
2023-02-11T15:00:27.076Z,23.45
2023-02-11T15:03:09.230Z,22.95
2023-02-11T15:06:03.031Z,23.45
2023-02-11T15:08:52.185Z,22.75
2023-02-11T15:11:45.938Z,23.00
2023-02-11T15:14:38.910Z,21.50
2023-02-11T15:17:24.047Z,23.92
2023-02-11T15:20:16.950Z,23.08
2023-02-11T15:23:02.380Z,23.25
2023-02-11T15:26:01.926Z,21.83
2023-02-11T15:28:52.071Z,21.90
2023-02-11T15:31:42.117Z,22.45
2023-02-11T15:34:24.310Z,22.45
2023-02-11T15:37:13.021Z,22.90
2023-02-11T15:40:08.926Z,22.80
2023-02-11T15:42:58.856Z,23.48
2023-02-11T15:45:53.008Z,22.17
2023-02-11T15:48:38.354Z,21.92
2023-02-11T15:51:35.045Z,22.30
2023-02-11T15:54:20.842Z,21.52
2023-02-11T15:57:16.573Z,23.20
2023-02-11T16:00:04.411Z,21.75
2023-02-11T16:05:52.049Z,25.92
2023-02-11T16:08:35.523Z,27.27
2023-02-11T16:11:39.985Z,23.65
2023-02-11T16:14:24.605Z,22.35
2023-02-11T16:17:17.960Z,22.58
2023-02-11T16:19:59.931Z,24.63
2023-02-11T16:22:48.966Z,25.50
2023-02-11T16:25:31.043Z,24.20
2023-02-11T16:28:19.978Z,23.15
2023-02-11T16:31:02.716Z,22.35
2023-02-11T16:33:53.013Z,23.67
2023-02-11T16:36:48.025Z,24.15
2023-02-11T16:39:30.059Z,24.80
2023-02-11T16:42:19.029Z,23.83
2023-02-11T16:45:00.919Z,26.13
2023-02-11T16:47:50.055Z,27.48
2023-02-11T16:50:33.258Z,35.15
2023-02-11T16:53:21.988Z,28.20
2023-02-11T16:56:17.778Z,26.40
2023-02-11T16:59:05.961Z,24.30
2023-02-11T17:01:50.363Z,25.00
2023-02-11T17:04:35.035Z,25.23
2023-02-11T17:07:27.050Z,26.48
2023-02-11T17:10:09.232Z,24.75
2023-02-11T17:12:59.059Z,24.35
2023-02-11T17:15:41.171Z,23.98
2023-02-11T17:18:30.002Z,24.08
2023-02-11T17:21:14.166Z,26.80
2023-02-11T17:24:04.075Z,27.33
2023-02-11T17:26:46.191Z,27.45
2023-02-11T17:29:34.115Z,25.83
2023-02-11T17:32:23.088Z,26.33
2023-02-11T17:35:06.854Z,25.80
2023-02-11T17:37:55.990Z,25.42
2023-02-11T17:40:39.403Z,24.83
2023-02-11T17:43:27.981Z,24.65
2023-02-11T17:46:10.519Z,26.17
2023-02-11T17:48:58.993Z,23.35
2023-02-11T17:51:41.256Z,25.25
2023-02-11T17:54:33.054Z,27.17
2023-02-11T17:57:22.986Z,26.17
2023-02-11T18:00:05.273Z,32.53
2023-02-11T18:02:57.636Z,24.63
2023-02-11T18:05:42.220Z,27.83
2023-02-11T18:08:29.994Z,30.15
2023-02-11T18:11:16.910Z,25.83
2023-02-11T18:14:08.027Z,29.50
2023-02-11T18:16:50.442Z,25.77
2023-02-11T18:19:41.994Z,27.48
2023-02-11T18:22:24.564Z,24.70
2023-02-11T18:25:13.979Z,26.35
2023-02-11T18:28:03.150Z,24.98
2023-02-11T18:30:46.720Z,22.88
2023-02-11T18:33:34.996Z,24.60
2023-02-11T18:36:18.054Z,23.95
2023-02-11T18:39:07.090Z,26.60
2023-02-11T18:41:49.983Z,23.73
2023-02-11T18:44:39.060Z,24.23
2023-02-11T18:47:22.491Z,26.45
2023-02-11T18:50:11.045Z,26.92
2023-02-11T18:52:52.995Z,23.48
2023-02-11T18:55:34.999Z,25.02
2023-02-11T18:58:30.018Z,24.67
2023-02-11T19:01:14.472Z,24.48
2023-02-11T19:04:05.103Z,23.73
2023-02-11T19:06:49.452Z,24.50
2023-02-11T19:09:38.074Z,25.27
2023-02-11T19:12:20.088Z,24.67
2023-02-11T19:15:09.020Z,24.42
2023-02-11T19:17:51.082Z,24.17
2023-02-11T19:20:41.126Z,25.02
2023-02-11T19:23:29.091Z,23.63
2023-02-11T19:26:11.246Z,22.95
2023-02-11T19:29:00.015Z,24.33
2023-02-11T19:31:42.430Z,24.83
2023-02-11T19:34:30.132Z,24.40
2023-02-11T19:37:13.640Z,25.23
2023-02-11T19:40:02.029Z,23.90
2023-02-11T19:42:44.282Z,24.58
2023-02-11T19:45:33.034Z,25.60
2023-02-11T19:48:15.246Z,24.30
2023-02-11T19:51:04.192Z,24.80
2023-02-11T19:53:54.051Z,26.08
2023-02-11T19:56:49.258Z,25.05
2023-02-11T19:59:38.036Z,23.20
2023-02-11T20:02:20.249Z,23.65
2023-02-11T20:05:09.015Z,25.13
2023-02-11T20:07:51.307Z,28.45
2023-02-11T20:10:42.078Z,25.70
2023-02-11T20:13:24.285Z,27.23
2023-02-11T20:16:14.199Z,25.50
2023-02-11T20:19:04.105Z,24.45
2023-02-11T20:21:47.770Z,24.90
2023-02-11T20:24:39.112Z,25.60
2023-02-11T20:27:22.369Z,26.38
2023-02-11T20:30:11.105Z,24.27
2023-02-11T20:32:52.952Z,25.25
2023-02-11T20:35:42.100Z,25.02
2023-02-11T20:38:24.079Z,24.00
2023-02-11T20:41:20.187Z,25.05
2023-02-11T20:44:13.059Z,26.27
2023-02-11T20:46:55.534Z,24.40
2023-02-11T20:49:43.051Z,25.23
2023-02-11T20:52:25.298Z,26.13
2023-02-11T20:55:14.101Z,24.40
2023-02-11T20:58:02.260Z,27.85
2023-02-11T21:00:45.083Z,23.38
2023-02-11T21:03:27.065Z,22.05
2023-02-11T21:06:16.221Z,23.63
2023-02-11T21:09:11.068Z,23.50
2023-02-11T21:11:56.899Z,21.38
2023-02-11T21:14:46.046Z,23.63
2023-02-11T21:17:29.828Z,23.17
2023-02-11T21:20:18.220Z,24.13
2023-02-11T21:23:00.038Z,23.13
2023-02-11T21:25:49.049Z,23.35
2023-02-11T21:28:31.021Z,24.83
2023-02-11T21:31:21.213Z,22.73
2023-02-11T21:34:04.793Z,22.77
2023-02-11T21:36:46.167Z,22.33
2023-02-11T21:39:35.109Z,22.80
2023-02-11T21:42:17.110Z,23.13
2023-02-11T21:45:06.035Z,22.02
2023-02-11T21:47:47.953Z,21.58
2023-02-11T21:50:38.071Z,22.92
2023-02-11T21:53:20.237Z,21.27
2023-02-11T21:56:18.145Z,20.48
2023-02-11T21:59:00.829Z,20.33
2023-02-11T22:01:49.127Z,19.88
2023-02-11T22:04:37.139Z,18.67
2023-02-11T22:07:22.914Z,19.60
2023-02-11T22:10:12.167Z,19.15
2023-02-11T22:12:54.299Z,19.90
2023-02-11T22:18:27.320Z,16.88
2023-02-11T22:21:18.092Z,17.33
2023-02-11T22:24:02.241Z,18.25
2023-02-11T22:26:50.165Z,18.35
2023-02-11T22:29:39.089Z,17.02
2023-02-11T22:32:21.140Z,16.90
2023-02-11T22:35:10.096Z,17.58
2023-02-11T22:37:52.282Z,16.83
2023-02-11T22:40:42.136Z,16.67
2023-02-11T22:43:24.120Z,17.45
2023-02-11T22:46:15.177Z,15.32
2023-02-11T22:48:57.374Z,14.65
2023-02-11T22:51:46.125Z,15.18
2023-02-11T22:54:43.182Z,14.68
2023-02-11T22:57:40.114Z,15.52
2023-02-11T23:00:32.187Z,13.70
2023-02-11T23:03:15.361Z,14.80
2023-02-11T23:06:06.183Z,16.05
2023-02-11T23:08:49.369Z,15.55
2023-02-11T23:11:39.108Z,13.73
2023-02-11T23:14:22.335Z,13.23
2023-02-11T23:17:11.100Z,14.38
2023-02-11T23:20:00.220Z,12.73
2023-02-11T23:22:42.054Z,14.25
2023-02-11T23:25:31.138Z,13.63
2023-02-11T23:28:13.856Z,14.10
2023-02-11T23:31:03.159Z,14.05
2023-02-11T23:33:45.337Z,13.93
2023-02-11T23:36:36.101Z,12.73
2023-02-11T23:39:18.129Z,12.93
2023-02-11T23:42:07.100Z,11.77
2023-02-11T23:44:55.118Z,12.60
2023-02-11T23:47:39.239Z,10.63
2023-02-11T23:50:28.206Z,10.32
2023-02-11T23:53:10.301Z,9.82
2023-02-11T23:55:59.109Z,9.15
2023-02-11T23:58:51.379Z,8.85
